Time;durP1;ratioP1;P1;durP2;ratioP2;P2;SDS_P1;SDS_P2;PMS_P1;PMS_P2;Temp;Humidity;BMP_temperature;BMP_pressure;BME280_temperature;BME280_humidity;BME280_pressure;Samples;Min_cycle;Max_cycle;Signal;HPM_P1;HPM_P2
2022/03/25 00:00:20;;;;;;;140.20;50.85;;;5.20;99.90;;;;;;5095780;28;20040;-65
2022/03/25 00:02:45;;;;;;;160.93;48.22;;;5.20;99.90;;;;;;5106342;28;20039;-66
2022/03/25 00:05:11;;;;;;;132.45;48.50;;;5.10;99.90;;;;;;5103076;28;20031;-65
2022/03/25 00:07:37;;;;;;;127.93;44.90;;;5.10;99.90;;;;;;5096723;27;20031;-66
2022/03/25 00:10:04;;;;;;;142.05;46.13;;;5.00;99.90;;;;;;5112596;27;20057;-65
2022/03/25 00:12:30;;;;;;;149.82;45.00;;;4.90;99.90;;;;;;5085044;27;20131;-65
2022/03/25 00:14:55;;;;;;;273.30;50.95;;;4.90;99.90;;;;;;5100570;27;20118;-67
2022/03/25 00:17:21;;;;;;;100.05;41.47;;;4.80;99.90;;;;;;5102669;27;20169;-66
2022/03/25 00:19:47;;;;;;;154.88;46.58;;;4.90;99.90;;;;;;5106251;27;20044;-66
2022/03/25 00:22:12;;;;;;;122.63;42.22;;;4.80;99.90;;;;;;5122734;27;20642;-65
2022/03/25 00:24:38;;;;;;;109.70;42.42;;;4.80;99.90;;;;;;5104288;27;20035;-66
2022/03/25 00:27:04;;;;;;;104.80;42.70;;;4.80;99.90;;;;;;5098283;28;20452;-65
2022/03/25 00:29:29;;;;;;;99.05;42.42;;;4.80;99.90;;;;;;5108960;27;20471;-65
2022/03/25 00:31:55;;;;;;;239.30;48.42;;;4.70;99.90;;;;;;5102309;27;20037;-67
2022/03/25 00:34:20;;;;;;;156.32;42.67;;;4.60;99.90;;;;;;5104554;27;20133;-66
2022/03/25 00:36:46;;;;;;;139.70;43.45;;;4.60;99.90;;;;;;5117684;27;20043;-67
2022/03/25 00:39:12;;;;;;;126.25;44.83;;;4.50;99.90;;;;;;5078846;27;20039;-65
2022/03/25 00:41:37;;;;;;;95.75;42.22;;;4.50;99.90;;;;;;5109254;28;20425;-65
2022/03/25 00:44:07;;;;;;;94.75;44.38;;;4.40;99.90;;;;;;5122409;27;20497;-65
2022/03/25 00:46:33;;;;;;;100.38;43.83;;;4.30;99.90;;;;;;5097921;27;20649;-67
2022/03/25 00:48:59;;;;;;;90.35;40.72;;;4.20;99.90;;;;;;5121036;27;20052;-66
2022/03/25 00:51:25;;;;;;;108.32;44.97;;;4.20;99.90;;;;;;5095479;28;20097;-65
2022/03/25 00:53:51;;;;;;;96.45;39.67;;;4.10;99.90;;;;;;5080875;27;20319;-66
2022/03/25 00:56:17;;;;;;;101.57;39.08;;;3.90;99.90;;;;;;5118782;27;20039;-65
2022/03/25 00:58:42;;;;;;;304.98;55.13;;;3.70;99.90;;;;;;5095137;27;20050;-65
2022/03/25 01:01:08;;;;;;;98.78;42.72;;;3.70;99.90;;;;;;5097361;27;20040;-66
2022/03/25 01:03:35;;;;;;;98.22;43.20;;;3.60;99.90;;;;;;5098704;27;20031;-65
2022/03/25 01:06:01;;;;;;;92.97;39.80;;;3.50;99.90;;;;;;5101048;27;20109;-66
2022/03/25 01:08:27;;;;;;;88.22;40.67;;;3.40;99.90;;;;;;5122939;27;20192;-66
2022/03/25 01:10:53;;;;;;;76.35;37.83;;;3.30;99.90;;;;;;5101711;27;20031;-65
2022/03/25 01:13:19;;;;;;;79.50;37.00;;;3.30;99.90;;;;;;5082825;27;20035;-65
2022/03/25 01:15:44;;;;;;;71.72;35.70;;;3.30;99.90;;;;;;5104800;27;20031;-65
2022/03/25 01:18:10;;;;;;;70.43;34.75;;;3.30;99.90;;;;;;5100974;27;20494;-65
2022/03/25 01:20:36;;;;;;;87.38;37.17;;;3.20;99.90;;;;;;5101196;27;20039;-65
2022/03/25 01:23:02;;;;;;;73.85;34.17;;;3.10;99.90;;;;;;5123350;27;20043;-65
2022/03/25 01:25:28;;;;;;;76.57;36.38;;;3.00;99.90;;;;;;5084690;27;20428;-66
2022/03/25 01:27:54;;;;;;;79.97;37.55;;;3.00;99.90;;;;;;5106279;27;20114;-65
2022/03/25 01:30:20;;;;;;;81.88;37.08;;;2.90;99.90;;;;;;5102447;27;20059;-64
2022/03/25 01:32:45;;;;;;;73.85;36.28;;;2.90;99.90;;;;;;5099115;27;20039;-64
2022/03/25 01:35:12;;;;;;;76.03;37.15;;;2.80;99.90;;;;;;5105989;27;20042;-65
2022/03/25 01:37:38;;;;;;;74.32;34.80;;;2.80;99.90;;;;;;5100176;27;20047;-65
2022/03/25 01:40:09;;;;;;;69.80;34.00;;;2.80;99.90;;;;;;5099030;27;20039;-64
2022/03/25 01:42:37;;;;;;;73.60;34.22;;;2.80;99.90;;;;;;5081659;27;20031;-64
2022/03/25 01:45:04;;;;;;;71.07;34.13;;;2.70;99.90;;;;;;5101650;27;20044;-65
2022/03/25 01:47:31;;;;;;;79.60;37.15;;;2.70;99.90;;;;;;5091729;27;20046;-64
2022/03/25 01:49:57;;;;;;;69.55;32.92;;;2.70;99.90;;;;;;5104491;27;20058;-64
2022/03/25 01:52:22;;;;;;;76.30;36.30;;;2.60;99.90;;;;;;5094914;27;20551;-64
2022/03/25 01:54:48;;;;;;;81.60;35.33;;;2.60;99.90;;;;;;5119301;27;20054;-65
2022/03/25 01:57:14;;;;;;;86.63;38.08;;;2.60;99.90;;;;;;5110808;27;20736;-64
2022/03/25 01:59:40;;;;;;;75.50;34.30;;;2.60;99.90;;;;;;5121720;27;20511;-65
2022/03/25 02:02:07;;;;;;;84.20;36.17;;;2.60;99.90;;;;;;5101348;27;20395;-64
2022/03/25 02:04:33;;;;;;;91.53;37.90;;;2.60;99.90;;;;;;5103204;27;20455;-64
2022/03/25 02:06:59;;;;;;;81.40;36.35;;;2.50;99.90;;;;;;5106577;27;20167;-66
2022/03/25 02:09:26;;;;;;;90.05;37.58;;;2.50;99.90;;;;;;5108681;27;20184;-64
2022/03/25 02:11:51;;;;;;;85.00;39.15;;;2.40;99.90;;;;;;5090249;27;20471;-64
2022/03/25 02:14:18;;;;;;;86.70;39.30;;;2.40;99.90;;;;;;5081450;28;20088;-64
2022/03/25 02:16:45;;;;;;;93.85;40.90;;;2.40;99.90;;;;;;5094910;28;20047;-64
2022/03/25 02:19:12;;;;;;;90.55;37.92;;;2.40;99.90;;;;;;5093515;27;20048;-65
2022/03/25 02:21:39;;;;;;;95.70;40.45;;;2.30;99.90;;;;;;5096298;28;20058;-65
2022/03/25 02:24:07;;;;;;;92.60;39.05;;;2.30;99.90;;;;;;5093893;28;20066;-64
2022/03/25 02:26:34;;;;;;;96.18;39.47;;;2.30;99.90;;;;;;5099155;27;20046;-64
2022/03/25 02:29:00;;;;;;;97.07;41.65;;;2.20;99.90;;;;;;5094552;27;20125;-64
2022/03/25 02:31:26;;;;;;;97.28;41.08;;;2.20;99.90;;;;;;5107233;27;20129;-64
2022/03/25 02:34:06;;;;;;;87.65;39.83;;;2.20;99.90;;;;;;5102600;28;20043;-65
2022/03/25 02:36:40;;;;;;;87.97;37.03;;;2.10;99.90;;;;;;5093640;27;20044;-64
2022/03/25 02:39:06;;;;;;;99.60;41.88;;;2.10;99.90;;;;;;5105097;27;20085;-64
2022/03/25 02:41:32;;;;;;;226.77;47.58;;;2.10;99.90;;;;;;5102682;27;20081;-64
2022/03/25 02:43:59;;;;;;;127.05;44.92;;;2.20;99.90;;;;;;5108411;27;20088;-64
2022/03/25 02:46:25;;;;;;;260.45;50.08;;;2.10;99.90;;;;;;5078514;27;20455;-64
2022/03/25 02:48:51;;;;;;;138.85;43.72;;;2.10;99.90;;;;;;5088518;27;20035;-65
2022/03/25 02:51:17;;;;;;;174.35;42.10;;;2.20;99.90;;;;;;5109334;27;21810;-65
2022/03/25 02:53:42;;;;;;;197.85;47.05;;;2.20;99.90;;;;;;5098512;27;20106;-65
2022/03/25 02:56:08;;;;;;;179.98;42.90;;;2.10;99.90;;;;;;5078551;27;20074;-64
2022/03/25 02:58:33;;;;;;;286.17;47.13;;;2.10;99.90;;;;;;5102564;27;20046;-64
2022/03/25 03:00:59;;;;;;;169.13;40.83;;;2.00;99.90;;;;;;5110769;27;20046;-64
2022/03/25 03:03:25;;;;;;;256.98;44.03;;;2.00;99.90;;;;;;5102680;27;20041;-64
2022/03/25 03:05:50;;;;;;;189.70;39.65;;;2.00;99.90;;;;;;5100090;27;20083;-66
2022/03/25 03:08:16;;;;;;;198.30;39.92;;;2.00;99.90;;;;;;5105039;27;20415;-65
2022/03/25 03:10:42;;;;;;;244.93;42.55;;;2.10;99.90;;;;;;5098696;28;20417;-65
2022/03/25 03:13:09;;;;;;;315.80;45.28;;;2.10;99.90;;;;;;5113488;27;20027;-64
2022/03/25 03:15:36;;;;;;;369.15;44.67;;;2.10;99.90;;;;;;5105139;28;20128;-64
2022/03/25 03:18:02;;;;;;;201.50;39.60;;;2.00;99.90;;;;;;5097927;28;20419;-64
2022/03/25 03:20:28;;;;;;;297.63;42.33;;;2.00;99.90;;;;;;5095866;28;20093;-64
2022/03/25 03:22:56;;;;;;;129.50;33.55;;;2.00;99.90;;;;;;5103372;28;20113;-64
2022/03/25 03:25:22;;;;;;;207.13;36.30;;;2.00;99.90;;;;;;5085801;28;20367;-65
2022/03/25 03:27:48;;;;;;;253.35;38.47;;;2.00;99.90;;;;;;5098316;28;20410;-64
2022/03/25 03:30:14;;;;;;;233.27;36.60;;;2.00;99.90;;;;;;5106476;28;20134;-64
2022/03/25 03:32:40;;;;;;;213.15;36.05;;;1.90;99.90;;;;;;5102952;28;20134;-66
2022/03/25 03:35:06;;;;;;;172.18;34.53;;;1.80;99.90;;;;;;5100326;28;20054;-64
2022/03/25 03:37:39;;;;;;;215.65;35.28;;;1.80;99.90;;;;;;5124632;28;20034;-64
2022/03/25 03:40:05;;;;;;;131.85;32.08;;;1.80;99.90;;;;;;5079588;28;20118;-64
2022/03/25 03:42:31;;;;;;;110.90;30.17;;;1.80;99.90;;;;;;5110581;27;20031;-64
2022/03/25 03:44:56;;;;;;;272.30;39.63;;;1.80;99.90;;;;;;5107267;27;20581;-64
2022/03/25 03:47:22;;;;;;;133.90;33.25;;;1.90;99.90;;;;;;5112610;27;20041;-65
2022/03/25 03:49:47;;;;;;;203.50;35.30;;;1.80;99.90;;;;;;5105521;27;20108;-65
2022/03/25 03:52:13;;;;;;;199.60;36.33;;;1.80;99.90;;;;;;5106155;27;20043;-64
2022/03/25 03:54:38;;;;;;;337.23;44.05;;;1.80;99.90;;;;;;5082940;28;20042;-64
2022/03/25 03:57:07;;;;;;;235.82;39.53;;;1.70;99.90;;;;;;5101050;27;20031;-65
2022/03/25 03:59:32;;;;;;;339.08;44.42;;;1.70;99.90;;;;;;5112151;27;20043;-65
2022/03/25 04:01:58;;;;;;;351.27;42.38;;;1.70;99.90;;;;;;5104043;27;20036;-65
2022/03/25 04:04:24;;;;;;;345.33;46.33;;;1.60;99.90;;;;;;5108708;27;20035;-64
2022/03/25 04:06:49;;;;;;;259.65;39.33;;;1.60;99.90;;;;;;5108455;27;20099;-66
2022/03/25 04:09:15;;;;;;;161.75;34.13;;;1.60;99.90;;;;;;5111480;27;20118;-63
2022/03/25 04:11:40;;;;;;;409.65;46.72;;;1.60;99.90;;;;;;5112032;27;20080;-64
2022/03/25 04:14:06;;;;;;;199.48;37.88;;;1.60;99.90;;;;;;5108098;27;20036;-65
2022/03/25 04:16:31;;;;;;;127.35;34.55;;;1.60;99.90;;;;;;5100965;27;20042;-63
2022/03/25 04:18:57;;;;;;;173.52;38.88;;;1.70;99.90;;;;;;5098393;27;20073;-64
2022/03/25 04:21:23;;;;;;;207.27;37.30;;;1.70;99.90;;;;;;5123914;27;20098;-64
2022/03/25 04:23:49;;;;;;;124.65;34.97;;;1.70;99.90;;;;;;5123839;27;20039;-64
2022/03/25 04:26:15;;;;;;;149.63;35.67;;;1.60;99.90;;;;;;5099725;27;20114;-64
2022/03/25 04:28:41;;;;;;;120.45;31.52;;;1.70;99.90;;;;;;5123769;27;20032;-64
2022/03/25 04:31:07;;;;;;;204.20;36.40;;;1.60;99.90;;;;;;5107016;27;20084;-64
2022/03/25 04:33:34;;;;;;;117.38;32.10;;;1.60;99.90;;;;;;5109446;27;20031;-64
2022/03/25 04:36:00;;;;;;;107.70;29.42;;;1.50;99.90;;;;;;5113306;27;20035;-64
2022/03/25 04:38:26;;;;;;;104.20;30.23;;;1.60;99.90;;;;;;5084914;27;20089;-64
2022/03/25 04:40:52;;;;;;;113.57;31.77;;;1.60;99.90;;;;;;5105687;27;20035;-64
2022/03/25 04:43:17;;;;;;;114.25;32.67;;;1.50;99.90;;;;;;5099235;27;20051;-64
2022/03/25 04:45:43;;;;;;;110.47;31.05;;;1.60;99.90;;;;;;5094414;27;20408;-64
2022/03/25 04:48:10;;;;;;;164.13;35.38;;;1.50;99.90;;;;;;5102149;27;20031;-64
2022/03/25 04:50:37;;;;;;;82.13;29.15;;;1.50;99.90;;;;;;5111546;27;20400;-63
2022/03/25 04:53:03;;;;;;;120.57;31.38;;;1.50;99.90;;;;;;5095031;28;20107;-64
2022/03/25 04:55:28;;;;;;;167.70;33.40;;;1.50;99.90;;;;;;5101078;27;20428;-64
2022/03/25 04:57:54;;;;;;;115.53;31.27;;;1.40;99.90;;;;;;5110060;28;20043;-63
2022/03/25 05:00:20;;;;;;;138.25;33.17;;;1.40;99.90;;;;;;5100496;27;20451;-64
2022/03/25 05:02:46;;;;;;;116.18;32.05;;;1.40;99.90;;;;;;5088088;27;20042;-64
2022/03/25 05:05:13;;;;;;;183.48;35.63;;;1.50;99.90;;;;;;5100879;27;20122;-64
2022/03/25 05:07:44;;;;;;;144.77;34.28;;;1.40;99.90;;;;;;5104143;27;20807;-64
2022/03/25 05:10:11;;;;;;;134.02;35.33;;;1.30;99.90;;;;;;5110979;27;20122;-64
2022/03/25 05:12:38;;;;;;;217.55;36.88;;;1.30;99.90;;;;;;5112015;27;20480;-63
2022/03/25 05:15:04;;;;;;;152.25;35.00;;;1.30;99.90;;;;;;5089681;27;20591;-65
2022/03/25 05:17:30;;;;;;;230.93;39.80;;;1.30;99.90;;;;;;5109687;27;20054;-64
2022/03/25 05:19:56;;;;;;;181.77;36.95;;;1.30;99.90;;;;;;5095564;27;20052;-64
2022/03/25 05:22:21;;;;;;;109.72;32.80;;;1.30;99.90;;;;;;5106125;27;20213;-64
2022/03/25 05:24:47;;;;;;;177.68;38.53;;;1.30;99.90;;;;;;5084109;27;20031;-64
2022/03/25 05:27:13;;;;;;;87.25;31.38;;;1.30;99.90;;;;;;5089294;27;20165;-65
2022/03/25 05:29:38;;;;;;;129.73;33.58;;;1.30;99.90;;;;;;5100131;27;20058;-64
2022/03/25 05:32:04;;;;;;;107.13;32.80;;;1.30;99.90;;;;;;5094255;27;20086;-64
2022/03/25 05:34:30;;;;;;;86.63;32.28;;;1.30;99.90;;;;;;5121709;27;20507;-65
2022/03/25 05:36:55;;;;;;;114.15;33.47;;;1.30;99.90;;;;;;5096397;27;20552;-65
2022/03/25 05:39:21;;;;;;;122.43;33.97;;;1.30;99.90;;;;;;5078766;28;20413;-66
2022/03/25 05:41:46;;;;;;;83.95;31.83;;;1.20;99.90;;;;;;5105524;27;20191;-64
2022/03/25 05:44:13;;;;;;;105.75;33.67;;;1.20;99.90;;;;;;5091053;27;20036;-64
2022/03/25 05:46:38;;;;;;;67.93;30.65;;;1.10;99.90;;;;;;5099939;27;20459;-64
2022/03/25 05:49:04;;;;;;;76.75;31.55;;;1.10;99.90;;;;;;5093196;28;20143;-63
2022/03/25 05:51:30;;;;;;;68.15;30.70;;;1.10;99.90;;;;;;5104290;27;20632;-64
2022/03/25 05:53:56;;;;;;;66.00;31.05;;;1.10;99.90;;;;;;5109306;27;20062;-64
2022/03/25 05:56:22;;;;;;;67.80;31.83;;;1.20;99.90;;;;;;5101334;27;20043;-63
2022/03/25 05:58:48;;;;;;;63.28;28.65;;;1.20;99.90;;;;;;5109065;27;20118;-65
2022/03/25 06:01:13;;;;;;;66.70;31.80;;;1.20;99.90;;;;;;5099909;27;20184;-64
2022/03/25 06:03:39;;;;;;;74.47;32.63;;;1.20;99.90;;;;;;5100659;27;20070;-64
2022/03/25 06:06:05;;;;;;;69.07;32.00;;;1.20;99.90;;;;;;5094658;27;20121;-63
2022/03/25 06:08:32;;;;;;;69.32;31.38;;;1.20;99.90;;;;;;5099313;27;20038;-63
2022/03/25 06:10:59;;;;;;;68.13;31.20;;;1.40;99.90;;;;;;5110847;27;20031;-65
2022/03/25 06:13:25;;;;;;;69.40;31.13;;;1.50;99.90;;;;;;5107695;27;20106;-64
2022/03/25 06:15:50;;;;;;;69.68;31.23;;;1.50;99.90;;;;;;5105331;27;20036;-65
2022/03/25 06:18:16;;;;;;;70.72;31.60;;;1.60;99.90;;;;;;5099246;27;20498;-65
2022/03/25 06:20:42;;;;;;;70.30;32.00;;;1.70;99.90;;;;;;5107581;27;20046;-64
2022/03/25 06:23:08;;;;;;;65.30;31.95;;;1.80;99.90;;;;;;5096828;27;20660;-65
2022/03/25 06:25:33;;;;;;;65.53;30.70;;;2.00;99.90;;;;;;5079945;28;20165;-64
2022/03/25 06:28:01;;;;;;;64.03;31.13;;;2.10;99.90;;;;;;5094231;27;20054;-65
2022/03/25 06:30:34;;;;;;;67.22;32.15;;;2.30;99.90;;;;;;5108513;27;20059;-64
2022/03/25 06:33:04;;;;;;;69.90;32.83;;;2.30;99.90;;;;;;5107060;27;20130;-65
2022/03/25 06:35:30;;;;;;;68.47;33.42;;;2.50;99.90;;;;;;5103235;28;20065;-65
2022/03/25 06:37:56;;;;;;;65.63;32.65;;;2.70;99.90;;;;;;5094950;27;20493;-65
2022/03/25 06:40:22;;;;;;;65.82;33.53;;;2.90;99.90;;;;;;5108311;27;20035;-65
2022/03/25 06:42:49;;;;;;;64.45;32.88;;;3.10;99.90;;;;;;5109902;27;20344;-66
2022/03/25 06:45:17;;;;;;;77.13;34.97;;;3.30;99.90;;;;;;5109932;27;20706;-65
2022/03/25 06:47:43;;;;;;;70.75;34.97;;;3.50;99.90;;;;;;5107948;28;20071;-65
2022/03/25 06:50:10;;;;;;;77.07;36.55;;;3.70;99.90;;;;;;5106088;27;20043;-65
2022/03/25 06:52:36;;;;;;;74.95;36.15;;;3.90;99.90;;;;;;5105665;27;20058;-66
2022/03/25 06:55:03;;;;;;;77.07;37.20;;;4.10;99.90;;;;;;5090132;27;20027;-65
2022/03/25 06:57:29;;;;;;;76.18;37.38;;;4.40;99.90;;;;;;5105294;27;20093;-66
2022/03/25 06:59:55;;;;;;;74.25;36.80;;;4.70;99.90;;;;;;5109231;28;20077;-65
2022/03/25 07:02:20;;;;;;;75.60;38.05;;;5.10;99.90;;;;;;5108140;27;20031;-65
2022/03/25 07:04:46;;;;;;;77.75;38.88;;;5.40;99.90;;;;;;5105076;27;20043;-65
2022/03/25 07:07:12;;;;;;;72.50;37.10;;;5.70;99.90;;;;;;5104587;27;20039;-65
2022/03/25 07:09:38;;;;;;;70.78;37.15;;;5.90;99.90;;;;;;5108657;28;20093;-66
2022/03/25 07:12:04;;;;;;;70.20;36.55;;;6.10;99.90;;;;;;5106482;28;20092;-65
2022/03/25 07:14:30;;;;;;;70.07;37.42;;;6.30;99.90;;;;;;5108613;28;20035;-66
2022/03/25 07:16:56;;;;;;;71.03;36.10;;;6.40;99.90;;;;;;5109213;28;20898;-66
2022/03/25 07:19:25;;;;;;;68.88;36.83;;;6.60;99.90;;;;;;5108268;28;20062;-66
2022/03/25 07:21:51;;;;;;;67.05;35.33;;;6.90;99.90;;;;;;5107382;28;20043;-66
2022/03/25 07:24:17;;;;;;;67.32;35.28;;;7.10;99.90;;;;;;5103312;28;20092;-66
2022/03/25 07:26:43;;;;;;;71.68;37.20;;;7.30;99.90;;;;;;5087683;28;20386;-67
2022/03/25 07:29:09;;;;;;;69.10;37.15;;;7.50;99.90;;;;;;5099105;28;20035;-66
2022/03/25 07:31:34;;;;;;;64.00;35.75;;;7.80;99.90;;;;;;5101389;28;20031;-67
2022/03/25 07:34:00;;;;;;;67.38;37.38;;;8.10;99.90;;;;;;5090620;28;20201;-67
2022/03/25 07:36:26;;;;;;;67.25;37.33;;;8.30;99.90;;;;;;5099681;28;20063;-66
2022/03/25 07:38:52;;;;;;;70.53;38.70;;;8.50;99.90;;;;;;5091098;28;20723;-67
2022/03/25 07:41:19;;;;;;;64.75;35.35;;;8.70;99.90;;;;;;5094977;28;20039;-66
2022/03/25 07:43:44;;;;;;;61.95;35.65;;;9.00;99.90;;;;;;5101192;28;20099;-65
2022/03/25 07:46:10;;;;;;;63.53;36.42;;;9.20;99.90;;;;;;5108123;28;20633;-67
2022/03/25 07:48:36;;;;;;;59.88;35.05;;;9.40;99.90;;;;;;5105477;28;20031;-66
2022/03/25 07:51:03;;;;;;;60.47;35.63;;;9.50;99.50;;;;;;5108735;28;20114;-66
2022/03/25 07:53:29;;;;;;;61.08;36.17;;;9.90;98.50;;;;;;5126530;28;20424;-66
2022/03/25 07:55:54;;;;;;;60.55;35.67;;;10.10;97.30;;;;;;5085916;28;20047;-66
2022/03/25 07:58:21;;;;;;;58.72;34.42;;;10.30;96.20;;;;;;5105251;28;20451;-67
2022/03/25 08:00:48;;;;;;;56.95;34.72;;;10.30;95.10;;;;;;5107269;27;20081;-67
2022/03/25 08:03:14;;;;;;;57.83;34.45;;;10.40;94.60;;;;;;5104473;27;20467;-66
2022/03/25 08:05:40;;;;;;;55.53;34.13;;;10.40;93.90;;;;;;5109230;28;20038;-66
2022/03/25 08:08:05;;;;;;;56.92;34.30;;;10.40;93.20;;;;;;5117715;27;20031;-66
2022/03/25 08:10:32;;;;;;;54.20;34.08;;;10.30;92.60;;;;;;5105472;28;20032;-67
2022/03/25 08:13:02;;;;;;;53.88;33.38;;;10.30;91.80;;;;;;5129486;28;20058;-66
2022/03/25 08:15:28;;;;;;;53.38;33.72;;;10.30;91.20;;;;;;5109982;28;20047;-66
2022/03/25 08:17:57;;;;;;;56.13;32.42;;;10.30;91.00;;;;;;5102272;28;20044;-66
2022/03/25 08:20:24;;;;;;;65.20;35.45;;;10.40;90.60;;;;;;5100658;28;20059;-66
2022/03/25 08:22:50;;;;;;;56.17;33.33;;;10.40;90.30;;;;;;5105333;28;20043;-66
2022/03/25 08:28:01;;;;;;;57.20;32.90;;;10.50;89.40;;;;;;5112164;27;20512;-67
2022/03/25 08:30:29;;;;;;;50.97;28.65;;;10.60;88.40;;;;;;5114438;27;20521;-66
2022/03/25 08:32:54;;;;;;;56.53;29.90;;;10.60;86.30;;;;;;5113018;27;20035;-65
2022/03/25 08:35:20;;;;;;;55.63;30.98;;;10.80;85.20;;;;;;5100508;27;20116;-65
2022/03/25 08:37:45;;;;;;;51.80;29.20;;;11.00;83.80;;;;;;5118450;27;20065;-66
2022/03/25 08:40:11;;;;;;;49.85;28.48;;;11.10;82.90;;;;;;5097205;27;20050;-66
2022/03/25 08:42:37;;;;;;;55.60;29.85;;;11.20;81.70;;;;;;5145823;27;20122;-66
2022/03/25 08:45:03;;;;;;;52.88;30.00;;;11.40;80.90;;;;;;5119483;27;20043;-66
2022/03/25 08:47:29;;;;;;;52.40;29.67;;;11.50;80.10;;;;;;5092142;27;20077;-68
2022/03/25 08:49:54;;;;;;;49.53;27.77;;;11.70;79.60;;;;;;5109383;27;20067;-67
2022/03/25 08:52:21;;;;;;;45.25;26.63;;;11.80;78.70;;;;;;5118835;27;20077;-67
2022/03/25 08:54:47;;;;;;;47.47;25.58;;;11.90;77.60;;;;;;5115320;27;20530;-66
2022/03/25 08:57:13;;;;;;;45.47;26.30;;;12.10;76.80;;;;;;5111824;27;20849;-68
2022/03/25 08:59:38;;;;;;;48.03;25.00;;;12.40;75.50;;;;;;5108342;27;20093;-67
2022/03/25 09:02:04;;;;;;;43.92;24.95;;;12.50;74.30;;;;;;5101374;27;20880;-68
2022/03/25 09:04:30;;;;;;;42.08;23.05;;;12.60;73.70;;;;;;5103502;27;20035;-67
2022/03/25 09:06:56;;;;;;;41.05;23.65;;;13.10;72.10;;;;;;5126467;27;20049;-67
2022/03/25 09:09:21;;;;;;;42.03;23.45;;;13.40;70.40;;;;;;5103912;27;20039;-67
2022/03/25 09:11:48;;;;;;;45.67;23.98;;;13.80;68.60;;;;;;5112468;27;20053;-67
2022/03/25 09:14:14;;;;;;;42.40;22.83;;;13.90;67.20;;;;;;5107034;27;20104;-67
2022/03/25 09:16:40;;;;;;;37.33;22.23;;;13.70;66.30;;;;;;5114506;27;20561;-66
2022/03/25 09:19:06;;;;;;;38.75;22.73;;;13.60;66.20;;;;;;5097343;27;20052;-65
2022/03/25 09:21:31;;;;;;;38.40;22.40;;;13.70;65.60;;;;;;5104674;27;20100;-67
2022/03/25 09:23:57;;;;;;;38.88;22.15;;;13.60;65.10;;;;;;5087109;27;20128;-67
2022/03/25 09:26:25;;;;;;;43.75;23.10;;;13.70;65.20;;;;;;5109751;27;20072;-68
2022/03/25 09:28:51;;;;;;;40.28;22.63;;;13.50;65.10;;;;;;5095098;27;20455;-67
2022/03/25 09:31:17;;;;;;;39.40;21.98;;;13.70;64.80;;;;;;5113799;27;20084;-68
2022/03/25 09:33:42;;;;;;;37.45;21.00;;;13.80;64.40;;;;;;5091440;28;20036;-67
2022/03/25 09:36:08;;;;;;;37.97;21.02;;;13.70;64.30;;;;;;5090817;27;20031;-67
2022/03/25 09:38:34;;;;;;;40.17;22.40;;;13.80;63.80;;;;;;5083554;27;20115;-68
2022/03/25 09:41:04;;;;;;;40.28;20.65;;;13.60;63.50;;;;;;5110039;27;20528;-67
2022/03/25 09:43:29;;;;;;;36.83;21.05;;;13.60;63.60;;;;;;5106452;27;20546;-66
2022/03/25 09:45:55;;;;;;;39.05;21.75;;;13.80;63.60;;;;;;5113469;27;20043;-67
2022/03/25 09:48:20;;;;;;;36.17;20.90;;;13.80;62.80;;;;;;5099582;27;20089;-68
2022/03/25 09:50:46;;;;;;;35.50;20.50;;;13.60;61.70;;;;;;5107780;27;20042;-68
2022/03/25 09:53:12;;;;;;;38.53;20.52;;;13.60;61.10;;;;;;5080790;27;21029;-68
2022/03/25 09:55:44;;;;;;;37.47;20.50;;;13.60;60.90;;;;;;5103807;27;20050;-68
2022/03/25 09:58:22;;;;;;;37.78;18.92;;;13.70;60.60;;;;;;5102830;27;20042;-69
2022/03/25 10:00:49;;;;;;;33.70;18.38;;;13.80;59.50;;;;;;5082214;27;20036;-68
2022/03/25 10:03:22;;;;;;;33.55;18.50;;;13.80;59.60;;;;;;5110980;27;20107;-68
2022/03/25 10:05:56;;;;;;;38.55;19.92;;;14.00;59.30;;;;;;5110654;27;20376;-69
2022/03/25 10:08:29;;;;;;;40.63;19.55;;;14.00;58.70;;;;;;5109279;27;20035;-68
2022/03/25 10:10:55;;;;;;;38.45;19.85;;;14.10;57.70;;;;;;5110690;27;20030;-69
2022/03/25 10:13:20;;;;;;;35.33;19.00;;;14.10;57.90;;;;;;5092942;27;20111;-70
2022/03/25 10:15:46;;;;;;;33.17;18.42;;;14.10;56.10;;;;;;5107865;27;20050;-68
2022/03/25 10:18:11;;;;;;;39.03;18.77;;;14.40;57.70;;;;;;5106274;27;20423;-69
2022/03/25 10:20:38;;;;;;;34.58;17.58;;;14.30;56.70;;;;;;5102835;27;20114;-68
2022/03/25 10:23:09;;;;;;;30.40;17.02;;;14.40;56.30;;;;;;5110884;27;20054;-68
2022/03/25 10:25:55;;;;;;;32.85;17.77;;;14.50;56.30;;;;;;5086799;27;20035;-67
2022/03/25 10:28:40;;;;;;;35.95;19.30;;;14.90;56.40;;;;;;5126703;27;20087;-68
2022/03/25 10:31:08;;;;;;;38.05;19.63;;;14.90;56.70;;;;;;5121367;27;20031;-69
2022/03/25 10:33:49;;;;;;;33.65;18.13;;;14.90;56.70;;;;;;5111089;27;20078;-69
2022/03/25 10:36:19;;;;;;;33.28;18.48;;;15.10;56.60;;;;;;5109187;27;20456;-69
2022/03/25 10:38:53;;;;;;;35.35;18.13;;;15.40;55.80;;;;;;5093224;28;20192;-68
2022/03/25 10:41:21;;;;;;;30.17;16.25;;;15.60;55.00;;;;;;5103741;27;20039;-70
2022/03/25 10:43:53;;;;;;;33.92;16.52;;;15.50;55.00;;;;;;5101100;27;20112;-68
2022/03/25 10:46:28;;;;;;;31.98;16.77;;;15.70;54.80;;;;;;5111529;27;20036;-69
2022/03/25 10:48:54;;;;;;;65.55;19.52;;;15.60;52.80;;;;;;5078096;27;20036;-68
2022/03/25 10:51:20;;;;;;;46.25;17.55;;;15.70;54.10;;;;;;5109721;27;20027;-69
2022/03/25 10:53:47;;;;;;;32.92;17.10;;;15.80;53.50;;;;;;5099845;27;20367;-67
2022/03/25 10:56:14;;;;;;;32.35;17.35;;;16.00;52.70;;;;;;5110018;27;20081;-70
2022/03/25 10:58:50;;;;;;;31.98;15.93;;;15.60;51.30;;;;;;5097010;27;20031;-69
2022/03/25 11:01:16;;;;;;;28.35;16.17;;;15.70;50.60;;;;;;5103985;28;20043;-66
2022/03/25 11:03:43;;;;;;;33.33;17.85;;;16.00;52.10;;;;;;5101955;27;20050;-71
2022/03/25 11:06:13;;;;;;;36.67;17.48;;;16.00;52.00;;;;;;5101257;28;20050;-72
2022/03/25 11:08:39;;;;;;;69.90;20.70;;;16.10;52.80;;;;;;5100503;27;20078;-72
2022/03/25 11:11:05;;;;;;;55.40;17.52;;;16.00;52.70;;;;;;5108104;27;20420;-71
2022/03/25 11:13:31;;;;;;;39.53;17.38;;;16.00;52.40;;;;;;5095414;27;20042;-71
2022/03/25 11:15:58;;;;;;;39.63;17.30;;;15.80;50.50;;;;;;5088194;28;20038;-69
2022/03/25 11:18:27;;;;;;;28.50;15.38;;;15.90;51.10;;;;;;5105610;28;20058;-70
2022/03/25 11:20:55;;;;;;;30.05;15.48;;;15.80;50.00;;;;;;5109912;28;20039;-70
2022/03/25 11:23:26;;;;;;;30.75;16.23;;;16.10;50.70;;;;;;5108785;28;20439;-68
2022/03/25 11:25:55;;;;;;;36.25;17.13;;;16.10;50.30;;;;;;5103156;28;20086;-69
2022/03/25 11:28:32;;;;;;;33.83;17.35;;;16.20;50.30;;;;;;5091662;28;20176;-68
2022/03/25 11:31:02;;;;;;;31.27;16.67;;;16.30;48.20;;;;;;5110921;28;20051;-69
2022/03/25 11:33:28;;;;;;;30.63;15.77;;;16.20;49.50;;;;;;5111403;28;20374;-70
2022/03/25 11:36:14;;;;;;;34.55;17.58;;;16.40;49.80;;;;;;5088911;28;20036;-70
2022/03/25 11:38:40;;;;;;;31.90;17.67;;;16.40;48.00;;;;;;5094787;28;20042;-69
2022/03/25 11:41:28;;;;;;;39.20;18.05;;;16.40;49.60;;;;;;5090572;28;20080;-69
2022/03/25 11:44:15;;;;;;;34.55;17.40;;;16.60;48.40;;;;;;5117669;28;20126;-68
2022/03/25 11:46:59;;;;;;;34.90;16.30;;;16.70;47.80;;;;;;5101148;28;20035;-68
2022/03/25 11:49:30;;;;;;;36.17;16.83;;;16.80;46.90;;;;;;5113022;28;20490;-67
2022/03/25 11:51:56;;;;;;;34.80;17.38;;;17.00;47.80;;;;;;5114542;27;20092;-67
2022/03/25 11:54:40;;;;;;;33.50;17.27;;;17.10;48.00;;;;;;5119405;27;20083;-67
2022/03/25 11:57:20;;;;;;;34.63;17.70;;;17.20;46.30;;;;;;5137068;27;20184;-67
2022/03/25 11:59:51;;;;;;;38.13;18.02;;;17.30;47.60;;;;;;5118812;27;20030;-67
2022/03/25 12:02:32;;;;;;;38.20;19.42;;;17.20;47.70;;;;;;5116084;27;20035;-68
2022/03/25 12:05:00;;;;;;;40.97;18.80;;;17.40;46.70;;;;;;5099687;27;20038;-69
2022/03/25 12:07:26;;;;;;;40.15;19.98;;;17.30;47.20;;;;;;5098800;27;20039;-69
2022/03/25 12:09:52;;;;;;;32.47;19.45;;;17.40;47.10;;;;;;5108551;27;20039;-67
2022/03/25 12:12:18;;;;;;;34.42;17.55;;;17.40;46.80;;;;;;5096200;27;20061;-67
2022/03/25 12:15:05;;;;;;;35.78;17.80;;;17.60;46.70;;;;;;5113456;27;20512;-67
2022/03/25 12:17:31;;;;;;;32.40;16.45;;;17.50;45.30;;;;;;5129387;27;20673;-68
2022/03/25 12:19:57;;;;;;;34.00;16.60;;;17.50;46.60;;;;;;5114180;27;20479;-68
2022/03/25 12:22:22;;;;;;;29.58;15.30;;;17.60;45.90;;;;;;5109425;27;20051;-68
2022/03/25 12:24:53;;;;;;;31.67;16.05;;;17.70;46.00;;;;;;5091117;27;20035;-69
2022/03/25 12:27:19;;;;;;;28.95;15.55;;;17.60;44.60;;;;;;5098250;27;20043;-70
2022/03/25 12:29:53;;;;;;;27.13;14.90;;;17.50;45.20;;;;;;5106914;27;20043;-68
2022/03/25 12:32:25;;;;;;;24.92;13.88;;;17.70;45.30;;;;;;5101815;27;20472;-69